createdAt,value
2023-05-22T00:00:05.387Z,11.3
2023-05-22T00:03:07.385Z,10.9
2023-05-22T00:06:09.333Z,11.6
2023-05-22T00:09:11.326Z,10
2023-05-22T00:12:13.272Z,11
2023-05-22T00:15:15.226Z,10.6
2023-05-22T00:18:17.226Z,9.9
2023-05-22T00:21:19.137Z,11.6
2023-05-22T00:24:21.098Z,10.7
2023-05-22T00:27:23.069Z,10.6
2023-05-22T00:30:25.032Z,9.8
2023-05-22T00:33:27.009Z,10.7
2023-05-22T00:36:28.947Z,10
2023-05-22T00:39:30.896Z,10.6
2023-05-22T00:42:32.858Z,10.1
2023-05-22T00:45:34.815Z,11.5
2023-05-22T00:48:36.802Z,11.5
2023-05-22T00:51:38.750Z,11.1
2023-05-22T00:54:40.735Z,13.1
2023-05-22T00:57:42.707Z,11.7
2023-05-22T01:00:44.694Z,11.4
2023-05-22T01:03:46.630Z,12.3
2023-05-22T01:06:48.625Z,11.3
2023-05-22T01:09:50.533Z,12.2
2023-05-22T01:12:52.477Z,11.6
2023-05-22T01:15:54.466Z,11.7
2023-05-22T01:18:56.420Z,11.1
2023-05-22T01:21:58.373Z,11.8
2023-05-22T01:25:00.332Z,10.6
2023-05-22T01:28:02.295Z,11.6
2023-05-22T01:31:04.246Z,10.6
2023-05-22T01:34:06.384Z,11.7
2023-05-22T01:37:08.196Z,10.3
2023-05-22T01:40:10.209Z,11.2
2023-05-22T01:43:12.152Z,11.5
2023-05-22T01:46:14.169Z,11.4
2023-05-22T01:49:16.073Z,11
2023-05-22T01:52:18.040Z,12.3
2023-05-22T01:55:20.006Z,11.6
2023-05-22T01:58:22.037Z,11.9
2023-05-22T02:01:23.974Z,10.5
2023-05-22T02:04:25.890Z,11
2023-05-22T02:07:27.832Z,11.2
2023-05-22T02:10:29.822Z,10
2023-05-22T02:13:31.810Z,11.8
2023-05-22T02:16:33.749Z,10.7
2023-05-22T02:19:35.751Z,11.5
2023-05-22T02:22:37.679Z,10.4
2023-05-22T02:25:39.617Z,11.6
2023-05-22T02:28:41.574Z,10.3
2023-05-22T02:31:43.608Z,11.9
2023-05-22T02:34:45.506Z,12.9
2023-05-22T02:37:47.456Z,11.6
2023-05-22T02:40:49.393Z,10.3
2023-05-22T02:43:51.346Z,11.4
2023-05-22T02:46:53.405Z,11.7
2023-05-22T02:49:55.270Z,10.7
2023-05-22T02:52:57.231Z,11.1
2023-05-22T02:55:59.195Z,10.8
2023-05-22T02:59:01.147Z,10.2
2023-05-22T03:02:03.152Z,10.4
2023-05-22T03:05:05.073Z,10.5
2023-05-22T03:08:07.024Z,10.2
2023-05-22T03:11:08.995Z,10.6
2023-05-22T03:14:10.951Z,9.5
2023-05-22T03:17:12.900Z,10.1
2023-05-22T03:20:14.870Z,10.9
2023-05-22T03:23:16.830Z,10.3
2023-05-22T03:26:18.810Z,11.7
2023-05-22T03:29:20.790Z,10.6
2023-05-22T03:32:22.788Z,11.1
2023-05-22T03:35:24.698Z,11.7
2023-05-22T03:38:26.656Z,11.8
2023-05-22T03:41:28.614Z,9.9
2023-05-22T03:44:30.577Z,11.1
2023-05-22T03:47:32.568Z,12
2023-05-22T03:50:34.494Z,10.9
2023-05-22T03:53:36.440Z,11.4
2023-05-22T03:56:38.419Z,12.1
2023-05-22T03:59:40.379Z,10.4
2023-05-22T04:02:42.440Z,11.2
2023-05-22T04:05:44.285Z,10.9
2023-05-22T04:08:46.256Z,10.6
2023-05-22T04:11:48.217Z,10
2023-05-22T04:14:50.163Z,10.9
2023-05-22T04:17:52.147Z,11.4
2023-05-22T04:20:54.086Z,10
2023-05-22T04:23:56.065Z,10
2023-05-22T04:26:58.006Z,10.3
2023-05-22T04:29:59.998Z,9.5
2023-05-22T04:33:02.038Z,9.5
2023-05-22T04:36:03.944Z,9.8
2023-05-22T04:39:05.893Z,11.4
2023-05-22T04:42:07.863Z,9.8
2023-05-22T04:45:09.819Z,10.8
2023-05-22T04:48:11.817Z,10.2
2023-05-22T04:51:13.779Z,9.9
2023-05-22T04:54:15.755Z,9.4
2023-05-22T04:57:17.681Z,9
2023-05-22T05:00:19.651Z,9.3
2023-05-22T05:03:21.632Z,8.7
2023-05-22T05:06:23.578Z,10
2023-05-22T05:09:25.559Z,9.2
2023-05-22T05:12:27.533Z,9.7
2023-05-22T05:15:29.474Z,9.6
2023-05-22T05:18:31.451Z,8.6
2023-05-22T05:21:33.411Z,8.5
2023-05-22T05:24:35.386Z,8.6
2023-05-22T05:27:37.344Z,9.3
2023-05-22T05:30:39.498Z,8.7
2023-05-22T05:33:41.291Z,9.6
2023-05-22T05:36:43.268Z,9.7
2023-05-22T05:39:45.227Z,8.2
2023-05-22T05:42:47.168Z,8.9
2023-05-22T05:45:49.209Z,9.1
2023-05-22T05:48:51.128Z,8
2023-05-22T05:51:53.113Z,8.1
2023-05-22T05:54:55.077Z,9
2023-05-22T05:57:57.026Z,9.5
2023-05-22T06:00:59.019Z,8.7
2023-05-22T06:04:01.057Z,8.7
2023-05-22T06:07:02.875Z,8.3
2023-05-22T06:10:04.961Z,9.7
2023-05-22T06:13:06.843Z,8.8
2023-05-22T06:16:08.803Z,9.2
2023-05-22T06:19:10.805Z,9.2
2023-05-22T06:22:12.750Z,9.1
2023-05-22T06:25:14.838Z,9
2023-05-22T06:28:16.691Z,9.4
2023-05-22T06:31:18.689Z,9
2023-05-22T06:34:20.814Z,9.1
2023-05-22T06:37:22.770Z,8.8
2023-05-22T06:40:24.594Z,9.4
2023-05-22T06:43:26.559Z,9
2023-05-22T06:46:28.548Z,8
2023-05-22T06:49:30.492Z,8.9
2023-05-22T06:52:32.473Z,9.1
2023-05-22T06:55:34.435Z,9.8
2023-05-22T06:58:36.388Z,9
2023-05-22T07:01:38.360Z,9.3
2023-05-22T07:04:40.326Z,9.6
2023-05-22T07:07:42.313Z,9.3
2023-05-22T07:10:44.228Z,8.7
2023-05-22T07:13:46.195Z,8.1
2023-05-22T07:16:48.197Z,8.7
2023-05-22T07:19:50.115Z,8.6
2023-05-22T07:22:52.122Z,8.5
2023-05-22T07:25:54.079Z,7.9
2023-05-22T07:28:56.051Z,9.4
2023-05-22T07:31:58.078Z,8.5
2023-05-22T07:34:59.981Z,8
2023-05-22T07:38:01.926Z,8.1
2023-05-22T07:41:03.898Z,8.5
2023-05-22T07:44:05.857Z,7.3
2023-05-22T07:47:07.807Z,7.1
2023-05-22T07:50:09.793Z,9.2
2023-05-22T07:53:11.765Z,8.8
2023-05-22T07:56:13.733Z,8.9
2023-05-22T07:59:15.668Z,8
2023-05-22T08:02:17.736Z,7.6
2023-05-22T08:05:19.672Z,7.9
2023-05-22T08:08:21.559Z,7.6
2023-05-22T08:11:23.506Z,8.1
2023-05-22T08:14:25.485Z,7.9
2023-05-22T08:17:27.447Z,8.6
2023-05-22T08:20:29.426Z,7.4
2023-05-22T08:23:31.356Z,8.7
2023-05-22T08:26:33.386Z,8.5
2023-05-22T08:29:35.271Z,8.6
2023-05-22T08:32:37.283Z,8
2023-05-22T08:35:39.231Z,8.3
2023-05-22T08:38:41.155Z,8.6
2023-05-22T08:41:43.115Z,8.2
2023-05-22T08:44:45.072Z,8.1
2023-05-22T08:47:47.050Z,8.8
2023-05-22T08:50:48.987Z,8.6
2023-05-22T08:53:50.932Z,7.8
2023-05-22T08:56:56.583Z,8.8
2023-05-22T08:59:54.862Z,8.3
2023-05-22T09:02:56.850Z,8.5
2023-05-22T09:05:58.776Z,8.2
2023-05-22T09:09:00.746Z,8.8
2023-05-22T09:12:02.749Z,7.7
2023-05-22T09:15:04.686Z,8.2
2023-05-22T09:18:06.802Z,7.9
2023-05-22T09:21:18.059Z,9
2023-05-22T09:24:10.566Z,7.9
2023-05-22T09:27:12.554Z,8.4
2023-05-22T09:30:14.497Z,8.1
2023-05-22T09:33:16.491Z,8.8
2023-05-22T09:36:18.405Z,8.6
2023-05-22T09:39:20.404Z,7.7
2023-05-22T09:42:22.381Z,7.2
2023-05-22T09:45:24.353Z,7.7
2023-05-22T09:48:26.300Z,8.2
2023-05-22T09:51:28.233Z,8.2
2023-05-22T09:54:30.207Z,7.9
2023-05-22T09:57:32.264Z,8
2023-05-22T10:00:34.222Z,7.7
2023-05-22T10:03:36.174Z,8.5
2023-05-22T10:06:38.151Z,8.6
2023-05-22T10:09:40.122Z,8.2
2023-05-22T10:12:42.077Z,8.4
2023-05-22T10:15:44.073Z,8.5
2023-05-22T10:18:46.133Z,8.4
2023-05-22T10:21:47.965Z,9.8
2023-05-22T10:24:49.933Z,8.1
2023-05-22T10:27:51.973Z,7.9
2023-05-22T10:30:53.888Z,7.7
2023-05-22T10:33:55.876Z,8
2023-05-22T10:37:03.120Z,8.3
2023-05-22T10:39:59.770Z,7.4
2023-05-22T10:43:01.777Z,6.7
2023-05-22T10:46:03.702Z,8.5
2023-05-22T10:49:05.648Z,8.6
2023-05-22T10:52:07.651Z,7.8
2023-05-22T10:55:09.638Z,8.4
2023-05-22T10:58:11.573Z,7.8
2023-05-22T11:01:13.583Z,8.1
2023-05-22T11:04:15.544Z,8.8
2023-05-22T11:07:17.472Z,7.3
2023-05-22T11:10:19.450Z,8.7
2023-05-22T11:13:21.390Z,8
2023-05-22T11:16:23.380Z,8.3
2023-05-22T11:19:25.381Z,8.4
2023-05-22T11:22:27.358Z,8.3
2023-05-22T11:25:29.269Z,8.9
2023-05-22T11:28:31.297Z,8.7
2023-05-22T11:31:33.331Z,8.6
2023-05-22T11:34:35.215Z,7.3
2023-05-22T11:37:37.234Z,7.9
2023-05-22T11:40:39.396Z,8.5
2023-05-22T11:43:41.130Z,8.1
2023-05-22T11:46:43.162Z,7.5
2023-05-22T11:49:45.076Z,8.2
2023-05-22T11:52:47.001Z,8.8
2023-05-22T11:55:48.955Z,7.6
2023-05-22T11:58:50.987Z,6.6
2023-05-22T12:01:52.915Z,7.7
2023-05-22T12:04:54.854Z,7.9
2023-05-22T12:07:56.840Z,7.6
2023-05-22T12:10:58.790Z,7.6
2023-05-22T12:14:00.779Z,7.7
2023-05-22T12:17:02.796Z,7.8
2023-05-22T12:20:04.689Z,7.8
2023-05-22T12:23:06.652Z,7.6
2023-05-22T12:26:08.593Z,8.2
2023-05-22T12:29:10.606Z,8.4
2023-05-22T12:32:12.553Z,7.3
2023-05-22T12:35:14.507Z,8.5
2023-05-22T12:38:16.425Z,7.3
2023-05-22T12:41:18.407Z,7.2
2023-05-22T12:44:20.346Z,7.3
2023-05-22T12:47:22.520Z,8.9
2023-05-22T12:50:24.298Z,8.9
2023-05-22T12:53:26.262Z,7.4
2023-05-22T12:56:28.228Z,8.3
2023-05-22T12:59:30.185Z,7.1
2023-05-22T13:02:32.177Z,6.9
2023-05-22T13:05:34.105Z,7.6
2023-05-22T13:08:36.073Z,8.2
2023-05-22T13:11:38.044Z,7
2023-05-22T13:14:39.965Z,7.3
2023-05-22T13:17:41.968Z,7.4
2023-05-22T13:20:43.873Z,6.2
2023-05-22T13:23:45.845Z,7.6
2023-05-22T13:26:47.808Z,8.4
2023-05-22T13:29:49.795Z,7
2023-05-22T13:32:51.761Z,8.6
2023-05-22T13:35:53.689Z,7.4
2023-05-22T13:38:55.686Z,6.4
2023-05-22T13:41:57.626Z,7.1
2023-05-22T13:44:59.610Z,6.9
2023-05-22T13:48:01.636Z,6.5
2023-05-22T13:51:03.546Z,7.5
2023-05-22T13:54:05.503Z,6
2023-05-22T13:57:07.598Z,6.1
2023-05-22T14:00:09.466Z,6.5
2023-05-22T14:03:11.598Z,6
2023-05-22T14:06:13.410Z,6.4
2023-05-22T14:09:15.386Z,5.8
2023-05-22T14:12:17.348Z,5.8
2023-05-22T14:15:19.289Z,6
2023-05-22T14:18:21.256Z,6.8
2023-05-22T14:21:23.234Z,5.7
2023-05-22T14:24:25.204Z,5.7
2023-05-22T14:27:27.163Z,6.2
2023-05-22T14:30:29.127Z,7.1
2023-05-22T14:33:31.133Z,6.3
2023-05-22T14:36:33.108Z,7.2
2023-05-22T14:39:38.147Z,8.1
2023-05-22T14:42:40.112Z,6.2
2023-05-22T14:45:42.213Z,6.6
2023-05-22T14:48:44.051Z,6.3
2023-05-22T14:51:46.016Z,6.4
2023-05-22T14:54:47.985Z,6.3
2023-05-22T14:57:49.960Z,7.2
2023-05-22T15:00:51.925Z,6.7
2023-05-22T15:03:53.896Z,7.1
2023-05-22T15:06:58.659Z,6.9
2023-05-22T15:10:00.634Z,6.2
2023-05-22T15:13:02.594Z,7.1
2023-05-22T15:16:04.588Z,7.1
2023-05-22T15:19:06.539Z,5.6
2023-05-22T15:22:19.161Z,4.7
2023-05-22T15:25:10.495Z,4.9
2023-05-22T15:28:12.427Z,4.5
2023-05-22T15:31:14.374Z,4.1
2023-05-22T15:34:16.411Z,4.1
2023-05-22T15:37:18.316Z,4.4
2023-05-22T15:40:20.295Z,4.4
2023-05-22T15:43:23.009Z,4
2023-05-22T15:46:24.267Z,3.9
2023-05-22T15:49:27.446Z,3.5
2023-05-22T15:52:28.140Z,3.6
2023-05-22T15:55:30.152Z,3.6
2023-05-22T15:58:32.096Z,3.1
2023-05-22T16:01:34.091Z,3.7
2023-05-22T16:04:39.053Z,3.8
2023-05-22T16:07:41.011Z,3.4
2023-05-22T16:10:42.992Z,3.8
2023-05-22T16:13:44.923Z,4.1
2023-05-22T16:16:46.873Z,5.3
2023-05-22T16:19:48.839Z,5.4
2023-05-22T16:22:50.798Z,5.5
2023-05-22T16:25:52.760Z,7.1
2023-05-22T16:28:54.712Z,5.7
2023-05-22T16:31:56.762Z,6.2
2023-05-22T16:34:58.639Z,5.5
2023-05-22T16:38:00.589Z,5.3
2023-05-22T16:41:02.589Z,4.8
2023-05-22T16:44:04.551Z,5.3
2023-05-22T16:47:06.539Z,4.7
2023-05-22T16:50:08.472Z,5.6
2023-05-22T16:53:10.460Z,5.6
2023-05-22T16:56:12.475Z,5.7
2023-05-22T16:59:14.408Z,5.5
2023-05-22T17:02:16.405Z,5.5
2023-05-22T17:05:18.344Z,5.5
2023-05-22T17:08:20.298Z,5.6
2023-05-22T17:11:22.254Z,5.6
2023-05-22T17:14:24.226Z,5.5
2023-05-22T17:17:26.222Z,5.2
2023-05-22T17:20:28.126Z,5.3
2023-05-22T17:23:30.089Z,5.6
2023-05-22T17:26:32.054Z,4.8
2023-05-22T17:29:34.005Z,5
2023-05-22T17:32:36.029Z,4.6
2023-05-22T17:35:37.931Z,4.9
2023-05-22T17:38:39.918Z,4.5
2023-05-22T17:41:41.895Z,5.6
2023-05-22T17:44:43.840Z,5.6
2023-05-22T17:47:45.852Z,7.1
2023-05-22T17:50:47.804Z,6.6
2023-05-22T17:53:49.731Z,6.7
2023-05-22T17:56:51.731Z,6.8
2023-05-22T17:59:53.644Z,8
2023-05-22T18:02:56.120Z,7.1
2023-05-22T18:05:57.594Z,7.2
2023-05-22T18:08:59.523Z,8.1
2023-05-22T18:12:01.498Z,7.4
2023-05-22T18:15:03.438Z,8.3
2023-05-22T18:18:05.438Z,7.3
2023-05-22T18:21:07.372Z,6.9
2023-05-22T18:24:09.352Z,7.4
2023-05-22T18:27:11.314Z,7.4
2023-05-22T18:30:13.278Z,7.7
2023-05-22T18:33:15.299Z,8.2
2023-05-22T18:36:17.215Z,7.8
2023-05-22T18:39:19.177Z,7.9
2023-05-22T18:42:21.155Z,6.9
2023-05-22T18:45:23.102Z,7.1
2023-05-22T18:48:25.062Z,6.8
2023-05-22T18:51:27.014Z,6.2
2023-05-22T18:54:29.017Z,6.8
2023-05-22T18:57:30.960Z,6.6
2023-05-22T19:00:32.941Z,6.9
2023-05-22T19:03:34.902Z,7.2
2023-05-22T19:06:36.875Z,7
2023-05-22T19:09:38.840Z,7.3
2023-05-22T19:12:40.805Z,6.3
2023-05-22T19:15:42.788Z,6.5
2023-05-22T19:18:44.780Z,7
2023-05-22T19:21:46.713Z,6.7
2023-05-22T19:24:48.717Z,5.8
2023-05-22T19:27:50.662Z,6.6
2023-05-22T19:30:52.704Z,6.7
2023-05-22T19:33:54.558Z,5.7
2023-05-22T19:36:56.539Z,5.6
2023-05-22T19:39:58.475Z,6.8
2023-05-22T19:43:00.455Z,5.8
2023-05-22T19:46:02.422Z,5.4
2023-05-22T19:49:04.362Z,4.9
2023-05-22T19:52:06.311Z,4.7
2023-05-22T19:55:08.269Z,4.9
2023-05-22T19:58:10.224Z,4.9
2023-05-22T20:01:12.228Z,4.5
2023-05-22T20:04:14.238Z,4.6
2023-05-22T20:07:16.102Z,4.7
2023-05-22T20:10:18.085Z,4.3
2023-05-22T20:13:20.066Z,4.7
2023-05-22T20:16:22.022Z,4.4
2023-05-22T20:19:23.977Z,5.1
2023-05-22T20:22:25.938Z,4.5
2023-05-22T20:25:27.891Z,5.3
2023-05-22T20:28:29.855Z,5.2
2023-05-22T20:31:31.835Z,5
2023-05-22T20:34:33.832Z,6.6
2023-05-22T20:37:35.807Z,5.6
2023-05-22T20:40:37.703Z,5.5
2023-05-22T20:43:39.665Z,5.5
2023-05-22T20:46:41.616Z,5.4
2023-05-22T20:49:43.569Z,5
2023-05-22T20:52:45.520Z,5.5
2023-05-22T20:55:47.518Z,5.5
2023-05-22T20:58:49.483Z,6.4
2023-05-22T21:01:51.408Z,6.4
2023-05-22T21:04:53.368Z,5.7
2023-05-22T21:07:55.332Z,8
2023-05-22T21:10:57.294Z,10
2023-05-22T21:13:59.257Z,8.9
2023-05-22T21:17:01.236Z,10.3
2023-05-22T21:20:03.180Z,11.9
2023-05-22T21:23:05.148Z,11.1
2023-05-22T21:26:07.120Z,13.7
2023-05-22T21:29:09.065Z,12.2
2023-05-22T21:32:11.069Z,12.5
2023-05-22T21:35:13.009Z,15.7
2023-05-22T21:38:14.981Z,13.9
2023-05-22T21:41:16.951Z,15.2
2023-05-22T21:44:18.915Z,16.1
2023-05-22T21:47:20.905Z,21.4
2023-05-22T21:50:22.867Z,23
2023-05-22T21:53:24.815Z,22.3
2023-05-22T21:56:26.770Z,21.7
2023-05-22T21:59:28.751Z,23.9
2023-05-22T22:02:30.696Z,24.5
2023-05-22T22:05:32.690Z,29.8
2023-05-22T22:08:34.675Z,26.6
2023-05-22T22:11:36.641Z,28.6
2023-05-22T22:14:38.587Z,26.3
2023-05-22T22:17:40.627Z,22.2
2023-05-22T22:20:44.694Z,33
2023-05-22T22:23:44.480Z,26.8
2023-05-22T22:26:46.418Z,28.9
2023-05-22T22:29:48.386Z,28.2
2023-05-22T22:32:50.375Z,27.6
2023-05-22T22:35:52.322Z,26.8
2023-05-22T22:38:54.277Z,24.1
2023-05-22T22:41:56.270Z,25.4
2023-05-22T22:44:58.211Z,23.7
2023-05-22T22:48:00.225Z,24.7
2023-05-22T22:51:02.169Z,20.7
2023-05-22T22:54:04.128Z,19.8
2023-05-22T22:57:06.085Z,24.3
2023-05-22T23:00:08.039Z,22.1
2023-05-22T23:03:10.003Z,18.4
2023-05-22T23:06:11.988Z,18.2
2023-05-22T23:09:13.924Z,24.3
2023-05-22T23:12:16.251Z,19.9
2023-05-22T23:15:17.846Z,20
2023-05-22T23:18:19.861Z,18.4
2023-05-22T23:21:21.774Z,21.4
2023-05-22T23:24:23.776Z,22.2
2023-05-22T23:27:25.830Z,19.6
2023-05-22T23:30:27.701Z,16.1
2023-05-22T23:33:29.707Z,21.8
2023-05-22T23:36:31.647Z,23.9
2023-05-22T23:39:33.602Z,21.3
2023-05-22T23:42:35.806Z,16.3
2023-05-22T23:45:37.524Z,18.1
2023-05-22T23:48:39.465Z,16.1
2023-05-22T23:51:41.435Z,17.6
2023-05-22T23:54:43.385Z,21.3
2023-05-22T23:57:45.350Z,21
